Time;durP1;ratioP1;P1;durP2;ratioP2;P2;SDS_P1;SDS_P2;PMS_P1;PMS_P2;Temp;Humidity;BMP_temperature;BMP_pressure;BME280_temperature;BME280_humidity;BME280_pressure;Samples;Min_cycle;Max_cycle;Signal;HPM_P1;HPM_P2
2023/10/30 00:02:18;;;;;;;19.77;8.83;;;;;;;-141.97;nan;47605.56;5052004;28;20173;-86
2023/10/30 00:04:44;;;;;;;16.20;8.43;;;;;;;-141.97;nan;47726.66;5052156;28;20204;-84
2023/10/30 00:07:09;;;;;;;19.27;8.27;;;;;;;-141.97;nan;47595.97;5052019;28;20173;-84
2023/10/30 00:09:35;;;;;;;18.27;8.53;;;;;;;-141.97;nan;47555.59;5051817;28;20240;-84
2023/10/30 00:12:01;;;;;;;18.70;8.80;;;;;;;-141.97;nan;47603.66;5051795;28;20173;-84
2023/10/30 00:14:26;;;;;;;17.13;8.53;;;;;;;-141.97;nan;47519.06;5052220;28;20181;-84
2023/10/30 00:16:52;;;;;;;16.83;8.50;;;;;;;-141.97;nan;47617.09;5033714;28;20221;-84
2023/10/30 00:19:18;;;;;;;19.50;8.70;;;;;;;-141.97;nan;47630.56;5051841;28;20236;-85
2023/10/30 00:21:43;;;;;;;16.27;8.43;;;;;;;-141.97;nan;47563.28;5034085;28;20500;-85
2023/10/30 00:24:09;;;;;;;15.03;8.40;;;;;;;-141.97;nan;47522.91;5051385;28;20166;-85
2023/10/30 00:26:35;;;;;;;15.07;8.47;;;;;;;-141.97;nan;47569.06;5051648;28;20180;-85
2023/10/30 00:29:01;;;;;;;21.10;8.63;;;;;;;-141.97;nan;47638.25;5033630;28;20173;-85
2023/10/30 00:31:27;;;;;;;17.73;8.20;;;;;;;-141.97;nan;47640.16;5051791;28;20697;-85
2023/10/30 00:33:53;;;;;;;14.37;8.47;;;;;;;-141.97;nan;47601.72;5051737;28;20254;-85
2023/10/30 00:36:19;;;;;;;16.00;8.63;;;;;;;-141.97;nan;47563.28;5036226;28;20227;-84
2023/10/30 00:38:45;;;;;;;17.50;8.77;;;;;;;-141.97;nan;47619.03;5035060;28;20161;-84
2023/10/30 00:41:10;;;;;;;17.13;8.03;;;;;;;-141.97;nan;47705.53;5055242;28;20173;-84
2023/10/30 00:43:37;;;;;;;19.47;9.00;;;;;;;-141.97;nan;47559.44;5037398;28;20176;-83
2023/10/30 00:46:03;;;;;;;15.33;8.57;;;;;;;-141.97;nan;47522.91;5055351;28;20176;-85
2023/10/30 00:48:29;;;;;;;13.87;7.63;;;;;;;-141.97;nan;47688.22;5051696;28;20251;-86
2023/10/30 00:50:55;;;;;;;18.30;8.53;;;;;;;-141.97;nan;47622.88;5035376;28;20567;-86
2023/10/30 00:53:20;;;;;;;14.37;7.83;;;;;;;-141.97;nan;47717.06;5033352;28;20252;-84
2023/10/30 00:55:55;;;;;;;14.83;8.10;;;;;;;-141.97;nan;47561.38;5033317;28;20165;-85
2023/10/30 00:58:20;;;;;;;15.60;7.67;;;;;;;-141.97;nan;47599.81;5051194;28;20241;-84
2023/10/30 01:00:46;;;;;;;15.77;8.17;;;;;;;-141.97;nan;47667.06;5051416;28;20165;-84
2023/10/30 01:03:11;;;;;;;15.57;8.60;;;;;;;-141.97;nan;47611.34;5051172;28;20248;-85
2023/10/30 01:05:37;;;;;;;18.30;8.00;;;;;;;-141.97;nan;47713.22;5050907;28;20173;-83
2023/10/30 01:08:08;;;;;;;14.23;7.63;;;;;;;-141.97;nan;47711.28;5051356;28;20158;-86
2023/10/30 01:10:35;;;;;;;14.90;8.17;;;;;;;-141.97;nan;47726.66;5051986;28;20157;-83
2023/10/30 01:13:00;;;;;;;16.00;8.30;;;;;;;-141.97;nan;47549.84;5033426;28;20169;-85
2023/10/30 01:15:25;;;;;;;13.97;8.10;;;;;;;-141.97;nan;47515.22;5050943;28;20189;-85
2023/10/30 01:17:51;;;;;;;19.87;8.40;;;;;;;-141.97;nan;47551.75;5050535;28;20301;-85
2023/10/30 01:20:16;;;;;;;16.07;8.60;;;;;;;-141.97;nan;47734.34;5032874;28;20573;-83
2023/10/30 01:22:42;;;;;;;12.27;7.80;;;;;;;-141.97;nan;47496.00;5050753;28;20213;-86
2023/10/30 01:25:07;;;;;;;14.53;8.20;;;;;;;-141.97;nan;47613.25;5050748;28;20165;-85
2023/10/30 01:27:33;;;;;;;14.37;8.20;;;;;;;-141.97;nan;47465.25;5050679;28;20161;-85
2023/10/30 01:29:58;;;;;;;14.13;7.97;;;;;;;-141.97;nan;47522.91;5032644;28;20165;-86
2023/10/30 01:32:24;;;;;;;14.70;7.60;;;;;;;-141.97;nan;47522.91;5032565;28;20643;-85
2023/10/30 01:34:49;;;;;;;16.13;7.63;;;;;;;-141.97;nan;47597.88;5050488;28;20201;-84
2023/10/30 01:37:15;;;;;;;15.37;7.47;;;;;;;-141.97;nan;47730.50;5050466;28;20629;-86
2023/10/30 01:39:43;;;;;;;13.77;7.03;;;;;;;-141.97;nan;47574.81;5050472;28;20192;-85
2023/10/30 01:42:09;;;;;;;12.37;6.60;;;;;;;-141.97;nan;47611.34;5050391;28;20527;-84
2023/10/30 01:44:34;;;;;;;10.17;6.87;;;;;;;-141.97;nan;47634.41;5050788;28;20162;-85
2023/10/30 01:46:59;;;;;;;12.73;7.17;;;;;;;-141.97;nan;47597.88;5053624;28;20165;-85
2023/10/30 01:49:25;;;;;;;12.90;6.80;;;;;;;-141.97;nan;47603.66;5060103;28;20169;-85
2023/10/30 01:51:50;;;;;;;13.37;7.20;;;;;;;-141.97;nan;47743.97;5064536;28;20148;-85
2023/10/30 01:54:16;;;;;;;12.37;7.00;;;;;;;-141.97;nan;47730.50;5072837;28;20243;-84
2023/10/30 01:56:42;;;;;;;12.93;6.77;;;;;;;-141.97;nan;47734.34;5074921;28;20217;-84
2023/10/30 01:59:08;;;;;;;12.97;7.23;;;;;;;-141.97;nan;47751.66;5079176;28;20195;-85
2023/10/30 02:01:38;;;;;;;13.67;6.93;;;;;;;-141.97;nan;47584.44;5052593;28;20264;-85
2023/10/30 02:04:04;;;;;;;12.47;6.73;;;;;;;-141.97;nan;47592.13;5039613;28;20553;-85
2023/10/30 02:06:29;;;;;;;14.77;6.57;;;;;;;-141.97;nan;47745.88;5054469;28;20181;-86
2023/10/30 02:08:54;;;;;;;12.67;6.50;;;;;;;-141.97;nan;47718.97;5036538;28;20267;-84
2023/10/30 02:11:20;;;;;;;11.63;6.57;;;;;;;-141.97;nan;47628.63;5054061;28;20241;-85
2023/10/30 02:13:54;;;;;;;12.40;6.23;;;;;;;-141.97;nan;47601.72;5036312;28;20692;-84
2023/10/30 02:16:19;;;;;;;12.90;5.90;;;;;;;-141.97;nan;47626.72;5055110;28;20252;-84
2023/10/30 02:18:45;;;;;;;15.20;6.23;;;;;;;-141.97;nan;47644.00;5055098;28;20605;-83
2023/10/30 02:21:12;;;;;;;11.97;6.17;;;;;;;-141.97;nan;47638.25;5037034;28;20173;-85
2023/10/30 02:23:37;;;;;;;9.40;5.50;;;;;;;-141.97;nan;47622.88;5055512;28;20212;-86
2023/10/30 02:26:02;;;;;;;8.83;5.33;;;;;;;-141.97;nan;47628.63;5056344;28;20161;-85
2023/10/30 02:28:28;;;;;;;14.47;5.50;;;;;;;-141.97;nan;47659.38;5054598;28;20683;-85
2023/10/30 02:30:53;;;;;;;9.17;5.10;;;;;;;-141.97;nan;47624.78;5036036;28;20173;-85
2023/10/30 02:33:19;;;;;;;10.00;5.40;;;;;;;-141.97;nan;47644.00;5036217;28;20260;-85
2023/10/30 02:35:44;;;;;;;12.53;5.73;;;;;;;-141.97;nan;47595.97;5053933;28;20201;-85
2023/10/30 02:38:09;;;;;;;10.67;5.37;;;;;;;-141.97;nan;47743.97;5054745;28;20578;-85
2023/10/30 02:40:35;;;;;;;8.80;5.60;;;;;;;-141.97;nan;47576.75;5036290;28;20248;-86
2023/10/30 02:43:00;;;;;;;9.97;5.40;;;;;;;-141.97;nan;47611.34;5056539;28;20161;-85
2023/10/30 02:45:26;;;;;;;9.20;5.70;;;;;;;-141.97;nan;47697.84;5036079;28;20193;-84
2023/10/30 02:47:51;;;;;;;12.50;5.50;;;;;;;-141.97;nan;47611.34;5036573;28;20192;-84
2023/10/30 02:50:16;;;;;;;12.47;5.90;;;;;;;-141.97;nan;47622.88;5054085;28;20170;-83
2023/10/30 02:52:42;;;;;;;12.97;5.43;;;;;;;-141.97;nan;47586.34;5054949;28;20184;-86
2023/10/30 02:55:09;;;;;;;10.73;5.80;;;;;;;-141.97;nan;47755.50;5054192;28;20223;-85
2023/10/30 02:57:34;;;;;;;10.27;5.70;;;;;;;-141.97;nan;47690.16;5054301;28;20162;-85
2023/10/30 03:00:01;;;;;;;13.87;5.70;;;;;;;-141.97;nan;47713.22;5036846;28;20181;-85
2023/10/30 03:02:26;;;;;;;10.97;5.30;;;;;;;-141.97;nan;47622.88;5053369;28;20170;-84
2023/10/30 03:04:52;;;;;;;11.40;6.30;;;;;;;-141.97;nan;47567.13;5052968;28;20184;-85
2023/10/30 03:07:18;;;;;;;11.17;6.27;;;;;;;-141.97;nan;47638.25;5052652;28;20177;-84
2023/10/30 03:09:43;;;;;;;12.10;5.83;;;;;;;-141.97;nan;47619.03;5053292;28;20157;-85
2023/10/30 03:12:09;;;;;;;15.63;6.10;;;;;;;-141.97;nan;47553.69;5052831;28;20248;-85
2023/10/30 03:14:34;;;;;;;10.53;6.00;;;;;;;-141.97;nan;47645.94;5052785;28;20185;-85
2023/10/30 03:17:00;;;;;;;16.57;6.03;;;;;;;-141.97;nan;47630.56;5053474;28;20217;-85
2023/10/30 03:19:25;;;;;;;11.30;6.00;;;;;;;-141.97;nan;47597.88;5054540;28;20643;-85
2023/10/30 03:21:51;;;;;;;17.73;6.70;;;;;;;-141.97;nan;47595.97;5053217;28;20637;-86
2023/10/30 03:24:16;;;;;;;30.83;15.60;;;;;;;-141.97;nan;47619.03;5053009;28;20545;-85
2023/10/30 03:26:42;;;;;;;26.33;13.03;;;;;;;-141.97;nan;47615.19;5053072;28;20244;-86
2023/10/30 03:29:07;;;;;;;10.23;6.20;;;;;;;-141.97;nan;47613.25;5052977;28;20163;-85
2023/10/30 03:31:33;;;;;;;11.07;6.00;;;;;;;-141.97;nan;47542.16;5052775;28;20651;-86
2023/10/30 03:33:58;;;;;;;11.60;6.30;;;;;;;-141.97;nan;47595.97;5052785;28;20200;-85
2023/10/30 03:36:24;;;;;;;12.10;6.60;;;;;;;-141.97;nan;47632.47;5053330;28;20169;-85
2023/10/30 03:38:51;;;;;;;12.73;6.67;;;;;;;-141.97;nan;47584.44;5052945;28;20165;-83
2023/10/30 03:41:17;;;;;;;11.63;6.87;;;;;;;-141.97;nan;47603.66;5053078;28;20164;-86
2023/10/30 03:43:42;;;;;;;13.30;6.57;;;;;;;-141.97;nan;47603.66;5052554;28;20165;-86
2023/10/30 03:46:08;;;;;;;12.00;6.80;;;;;;;-141.97;nan;47595.97;5052335;28;20169;-85
2023/10/30 03:48:33;;;;;;;13.90;6.90;;;;;;;-141.97;nan;47557.53;5052402;28;20200;-84
2023/10/30 03:50:59;;;;;;;13.90;6.77;;;;;;;-141.97;nan;47703.59;5052255;28;20240;-86
2023/10/30 03:53:25;;;;;;;12.10;6.83;;;;;;;-141.97;nan;47580.59;5052209;28;20251;-86
2023/10/30 03:55:51;;;;;;;15.10;6.93;;;;;;;-141.97;nan;47742.03;5053505;28;20166;-85
2023/10/30 03:58:16;;;;;;;11.77;6.40;;;;;;;-141.97;nan;47582.50;5052832;28;20172;-86
2023/10/30 04:00:41;;;;;;;13.57;6.70;;;;;;;-141.97;nan;47644.00;5052085;28;20525;-86
2023/10/30 04:03:08;;;;;;;12.50;6.67;;;;;;;-141.97;nan;47624.78;5051922;28;20184;-86
2023/10/30 04:05:33;;;;;;;14.83;7.20;;;;;;;-141.97;nan;47640.16;5051834;28;20161;-85
2023/10/30 04:07:59;;;;;;;11.67;6.60;;;;;;;-141.97;nan;47607.50;5051753;28;20177;-85
2023/10/30 04:10:24;;;;;;;10.47;6.07;;;;;;;-141.97;nan;47521.00;5051809;28;20161;-84
2023/10/30 04:12:50;;;;;;;12.33;6.37;;;;;;;-141.97;nan;47647.84;5051912;28;20165;-85
2023/10/30 04:15:17;;;;;;;13.50;6.37;;;;;;;-141.97;nan;47670.91;5033788;28;20627;-86
2023/10/30 04:17:43;;;;;;;16.00;6.73;;;;;;;-141.97;nan;47582.50;5051107;28;20213;-85
2023/10/30 04:20:09;;;;;;;13.73;6.40;;;;;;;-141.97;nan;47603.66;5051173;28;20176;-86
2023/10/30 04:22:34;;;;;;;13.03;6.27;;;;;;;-141.97;nan;47645.94;5051700;28;20707;-85
2023/10/30 04:25:00;;;;;;;11.67;6.40;;;;;;;-141.97;nan;47526.75;5051749;28;20218;-84
2023/10/30 04:27:26;;;;;;;14.80;6.63;;;;;;;-141.97;nan;47628.63;5052810;28;20592;-85
2023/10/30 04:29:51;;;;;;;11.53;6.10;;;;;;;-141.97;nan;47619.03;5058283;28;20169;-82
2023/10/30 04:32:16;;;;;;;14.13;6.70;;;;;;;-141.97;nan;47665.16;5064191;28;20172;-82
2023/10/30 04:34:42;;;;;;;13.43;6.20;;;;;;;-141.97;nan;47630.56;5055398;28;20636;-85
2023/10/30 04:37:07;;;;;;;18.97;7.50;;;;;;;-141.97;nan;47559.44;5051420;28;20222;-85
2023/10/30 04:39:33;;;;;;;13.87;6.43;;;;;;;-141.97;nan;47622.88;5051273;28;20755;-84
2023/10/30 04:41:58;;;;;;;12.93;6.33;;;;;;;-141.97;nan;47619.03;5033353;28;20179;-84
2023/10/30 04:44:24;;;;;;;13.20;6.40;;;;;;;-141.97;nan;47599.81;5033448;28;20165;-84
2023/10/30 04:46:49;;;;;;;14.43;6.77;;;;;;;-141.97;nan;47576.75;5051638;28;20257;-83
2023/10/30 04:49:14;;;;;;;16.20;6.60;;;;;;;-141.97;nan;47624.78;5036430;28;20197;-83
2023/10/30 04:51:40;;;;;;;10.67;6.30;;;;;;;-141.97;nan;47745.88;5059256;28;20248;-84
2023/10/30 04:54:05;;;;;;;13.80;6.33;;;;;;;-141.97;nan;47586.34;5068898;28;20208;-84
2023/10/30 04:56:31;;;;;;;16.07;6.40;;;;;;;-141.97;nan;47634.41;5044881;28;20554;-83
2023/10/30 04:58:56;;;;;;;16.63;7.20;;;;;;;-141.97;nan;47634.41;5033861;28;20192;-82
2023/10/30 05:01:21;;;;;;;17.40;7.27;;;;;;;-141.97;nan;47628.63;5051130;28;20165;-84
2023/10/30 05:03:47;;;;;;;14.47;7.10;;;;;;;-141.97;nan;47594.03;5050987;28;20196;-83
2023/10/30 05:06:13;;;;;;;14.03;6.50;;;;;;;-141.97;nan;47617.09;5050891;28;20337;-84
2023/10/30 05:08:39;;;;;;;15.17;6.90;;;;;;;-141.97;nan;47740.13;5050870;28;20625;-84
2023/10/30 05:11:04;;;;;;;19.67;7.03;;;;;;;-141.97;nan;47634.41;5051315;28;20220;-84
2023/10/30 05:13:30;;;;;;;16.43;7.60;;;;;;;-141.97;nan;47619.03;5050983;28;20169;-84
2023/10/30 05:15:56;;;;;;;15.87;8.17;;;;;;;-141.97;nan;47615.19;5050519;28;20184;-86
2023/10/30 05:18:28;;;;;;;19.10;8.53;;;;;;;-141.97;nan;47638.25;5051257;28;20170;-85
2023/10/30 05:20:54;;;;;;;20.40;8.47;;;;;;;-141.97;nan;47622.88;5051491;28;20530;-86
2023/10/30 05:23:19;;;;;;;52.50;21.40;;;;;;;-141.97;nan;47645.94;5053704;28;20157;-86
2023/10/30 05:25:44;;;;;;;46.83;19.47;;;;;;;-141.97;nan;47615.19;5051009;28;20169;-85
2023/10/30 05:28:10;;;;;;;43.13;18.53;;;;;;;-141.97;nan;47595.97;5050909;28;20165;-85
2023/10/30 05:30:35;;;;;;;35.63;15.33;;;;;;;-141.97;nan;47640.16;5051741;28;20153;-85
2023/10/30 05:33:01;;;;;;;20.33;9.17;;;;;;;-141.97;nan;47630.56;5055095;28;20165;-85
2023/10/30 05:35:27;;;;;;;20.57;8.87;;;;;;;-141.97;nan;47601.72;5054819;28;20185;-84
2023/10/30 05:37:52;;;;;;;19.40;7.90;;;;;;;-141.97;nan;47619.03;5036605;28;20227;-84
2023/10/30 05:40:18;;;;;;;13.33;7.50;;;;;;;-141.97;nan;47657.47;5054713;28;20625;-84
2023/10/30 05:42:44;;;;;;;16.17;8.00;;;;;;;-141.97;nan;47626.72;5036706;28;20629;-84
2023/10/30 05:45:09;;;;;;;18.20;8.20;;;;;;;-141.97;nan;47634.41;5036627;28;20168;-84
2023/10/30 05:47:36;;;;;;;18.27;10.13;;;;;;;-141.97;nan;47609.41;5054581;28;20237;-84
2023/10/30 05:50:01;;;;;;;16.27;8.40;;;;;;;-141.97;nan;47638.25;5054693;28;20150;-82
2023/10/30 05:52:27;;;;;;;15.73;8.03;;;;;;;-141.97;nan;47626.72;5055359;28;20165;-85
2023/10/30 05:54:52;;;;;;;14.40;8.10;;;;;;;-141.97;nan;47653.63;5038165;28;20219;-83
2023/10/30 05:57:23;;;;;;;15.20;8.30;;;;;;;-141.97;nan;47599.81;5057539;28;20200;-83
2023/10/30 05:59:48;;;;;;;16.30;7.70;;;;;;;-141.97;nan;47632.47;5076818;28;20263;-84
2023/10/30 06:02:15;;;;;;;18.80;8.10;;;;;;;-141.97;nan;47630.56;5055638;28;20590;-85
2023/10/30 06:04:40;;;;;;;20.40;10.60;;;;;;;-141.97;nan;47665.16;5082506;28;20216;-83
2023/10/30 06:07:06;;;;;;;24.83;11.80;;;;;;;-141.97;nan;47597.88;5055396;28;20238;-84
2023/10/30 06:09:31;;;;;;;17.93;11.43;;;;;;;-141.97;nan;47603.66;5037155;28;20174;-85
2023/10/30 06:11:56;;;;;;;14.03;8.00;;;;;;;-141.97;nan;47674.78;5054580;28;20196;-85
2023/10/30 06:14:22;;;;;;;17.00;7.77;;;;;;;-141.97;nan;47626.72;5060002;28;20204;-84
2023/10/30 06:16:48;;;;;;;17.97;10.00;;;;;;;-141.97;nan;47607.50;5056255;28;20223;-87
2023/10/30 06:19:13;;;;;;;16.47;8.37;;;;;;;-141.97;nan;47599.81;5054761;28;20197;-88
2023/10/30 06:21:39;;;;;;;16.63;7.77;;;;;;;-141.97;nan;47640.16;5036395;28;20181;-88
2023/10/30 06:24:08;;;;;;;17.20;8.43;;;;;;;-141.97;nan;47630.56;5054040;28;20158;-87
2023/10/30 06:26:34;;;;;;;17.23;8.47;;;;;;;-141.97;nan;47755.50;5053621;28;20149;-84
2023/10/30 06:28:59;;;;;;;16.90;8.37;;;;;;;-141.97;nan;47780.47;5035763;28;20180;-87
2023/10/30 06:31:24;;;;;;;20.37;7.93;;;;;;;-141.97;nan;47540.22;5035925;28;20173;-87
2023/10/30 06:33:51;;;;;;;14.43;8.30;;;;;;;-141.97;nan;47434.50;5053429;28;20272;-86
2023/10/30 06:36:16;;;;;;;14.67;7.70;;;;;;;-141.97;nan;47559.44;5035642;28;20166;-88
2023/10/30 06:38:42;;;;;;;24.07;9.77;;;;;;;-141.97;nan;47559.44;5053226;28;20191;-88
2023/10/30 06:41:07;;;;;;;21.20;9.33;;;;;;;-141.97;nan;47513.31;5034974;28;20172;-88
2023/10/30 06:43:33;;;;;;;13.20;7.40;;;;;;;-141.97;nan;47592.13;5057889;28;20168;-89
2023/10/30 06:46:05;;;;;;;16.27;7.70;;;;;;;-141.97;nan;47657.47;5054841;28;20189;-89
2023/10/30 06:48:31;;;;;;;14.07;7.83;;;;;;;-141.97;nan;47620.94;5053662;28;20181;-88
2023/10/30 06:50:57;;;;;;;12.73;7.17;;;;;;;-141.97;nan;47551.75;5054481;28;20621;-90
2023/10/30 06:53:23;;;;;;;12.57;6.90;;;;;;;-141.97;nan;47694.00;5035376;28;20176;-87
2023/10/30 06:55:50;;;;;;;14.37;7.70;;;;;;;-141.97;nan;47640.16;5059926;28;20214;-88
2023/10/30 06:58:16;;;;;;;14.33;6.93;;;;;;;-141.97;nan;47628.63;5043664;28;20234;-88
2023/10/30 07:00:42;;;;;;;16.97;7.67;;;;;;;-141.97;nan;47586.34;5054740;28;20161;-88
2023/10/30 07:03:07;;;;;;;15.50;7.50;;;;;;;-141.97;nan;47718.97;5035108;28;20174;-89
2023/10/30 07:05:33;;;;;;;13.27;5.90;;;;;;;-141.97;nan;47582.50;5035674;28;20153;-87
2023/10/30 07:07:58;;;;;;;11.50;6.03;;;;;;;-141.97;nan;47559.44;5040220;28;20173;-88
2023/10/30 07:10:23;;;;;;;11.00;5.50;;;;;;;-141.97;nan;47547.91;5043939;28;20177;-89
2023/10/30 07:12:49;;;;;;;11.73;5.87;;;;;;;-141.97;nan;47511.38;5038711;28;20267;-88
2023/10/30 07:15:14;;;;;;;12.17;5.17;;;;;;;-141.97;nan;47786.25;5053467;28;20199;-89
2023/10/30 07:17:40;;;;;;;12.57;5.90;;;;;;;-141.97;nan;47497.94;5027177;28;20226;-89
2023/10/30 07:20:06;;;;;;;10.10;5.00;;;;;;;-141.97;nan;47553.69;5054750;28;20552;-89
2023/10/30 07:22:32;;;;;;;10.73;5.20;;;;;;;-141.97;nan;47749.72;5055420;28;20860;-89
2023/10/30 07:24:57;;;;;;;15.80;8.00;;;;;;;-141.97;nan;47494.09;5063659;28;20165;-88
2023/10/30 07:27:23;;;;;;;18.00;8.43;;;;;;;-141.97;nan;47767.03;5067067;28;20176;-87
2023/10/30 07:29:48;;;;;;;13.27;5.80;;;;;;;-141.97;nan;47546.00;5035958;28;20161;-89
2023/10/30 07:32:14;;;;;;;11.43;6.00;;;;;;;-141.97;nan;47576.75;5053269;28;20288;-88
2023/10/30 07:34:43;;;;;;;7.57;4.17;;;;;;;-141.97;nan;47582.50;5038595;28;20177;-89
2023/10/30 07:37:08;;;;;;;10.37;4.90;;;;;;;-141.97;nan;47686.31;5035710;28;20176;-87
2023/10/30 07:39:34;;;;;;;9.83;4.70;;;;;;;-141.97;nan;47486.41;5037386;28;20185;-87
2023/10/30 07:41:59;;;;;;;11.40;5.00;;;;;;;-141.97;nan;47634.41;5052018;28;20621;-87
2023/10/30 07:44:24;;;;;;;11.00;4.70;;;;;;;-141.97;nan;47613.25;5036625;28;20251;-87
2023/10/30 07:46:50;;;;;;;8.47;4.40;;;;;;;-141.97;nan;47607.50;5054588;28;20185;-87
2023/10/30 07:49:15;;;;;;;8.37;4.40;;;;;;;-141.97;nan;47574.81;5053092;28;20646;-89
2023/10/30 07:51:41;;;;;;;6.97;4.17;;;;;;;-141.97;nan;47705.53;5041024;28;20197;-88
2023/10/30 07:54:06;;;;;;;10.80;4.47;;;;;;;-141.97;nan;47678.63;5032867;28;20342;-88
2023/10/30 07:56:32;;;;;;;12.73;4.70;;;;;;;-141.97;nan;47653.63;5032299;28;20550;-86
2023/10/30 07:59:06;;;;;;;8.13;4.60;;;;;;;-141.97;nan;47738.19;5057067;28;20154;-88
2023/10/30 08:01:33;;;;;;;7.67;5.10;;;;;;;-141.97;nan;47697.84;5055083;28;20167;-87
2023/10/30 08:03:59;;;;;;;8.67;4.60;;;;;;;-141.97;nan;47730.50;5051767;28;20180;-88
2023/10/30 08:06:25;;;;;;;14.90;7.17;;;;;;;-141.97;nan;47434.50;5033556;28;20208;-87
2023/10/30 08:08:52;;;;;;;8.90;5.40;;;;;;;-141.97;nan;47492.16;5033766;28;20193;-87
2023/10/30 08:11:17;;;;;;;9.17;5.43;;;;;;;-141.97;nan;47546.00;5033720;28;20180;-86
2023/10/30 08:13:42;;;;;;;11.30;6.07;;;;;;;-141.97;nan;47718.97;5034471;28;20197;-87
2023/10/30 08:16:10;;;;;;;9.83;5.87;;;;;;;-141.97;nan;47715.13;5040474;28;20312;-87
2023/10/30 08:18:36;;;;;;;12.37;6.40;;;;;;;-141.97;nan;47482.56;5047826;28;20194;-88
2023/10/30 08:21:01;;;;;;;12.97;7.93;;;;;;;-141.97;nan;47492.16;5054125;28;20255;-88
2023/10/30 08:23:26;;;;;;;15.37;9.73;;;;;;;-141.97;nan;47580.59;5035828;28;20246;-88
2023/10/30 08:25:52;;;;;;;9.17;5.10;;;;;;;-141.97;nan;47724.75;5032380;28;20173;-88
2023/10/30 08:28:18;;;;;;;16.33;9.90;;;;;;;-141.97;nan;47478.72;5051635;28;20192;-88
2023/10/30 08:30:43;;;;;;;18.10;11.07;;;;;;;-141.97;nan;47446.03;5033504;28;20592;-88
2023/10/30 08:33:08;;;;;;;9.07;5.27;;;;;;;-141.97;nan;47461.41;5033667;28;20215;-87
2023/10/30 08:35:34;;;;;;;9.53;5.10;;;;;;;-141.97;nan;47692.06;5033445;28;20673;-87
2023/10/30 08:37:59;;;;;;;11.10;4.90;;;;;;;-141.97;nan;47428.75;5032748;28;20202;-87
2023/10/30 08:40:25;;;;;;;10.47;4.27;;;;;;;-141.97;nan;47415.28;5032944;28;20168;-87
2023/10/30 08:42:51;;;;;;;6.80;4.10;;;;;;;-141.97;nan;47451.81;5033513;28;20169;-88
2023/10/30 08:45:16;;;;;;;8.60;4.83;;;;;;;-141.97;nan;47499.84;5033124;28;20595;-88
2023/10/30 08:47:45;;;;;;;9.30;4.53;;;;;;;-141.97;nan;47617.09;5050877;28;20169;-86
2023/10/30 08:50:13;;;;;;;15.17;8.40;;;;;;;-141.97;nan;47728.59;5051861;28;20184;-88
2023/10/30 08:52:39;;;;;;;6.63;4.17;;;;;;;-141.97;nan;47559.44;5031486;28;20213;-88
2023/10/30 08:55:07;;;;;;;10.50;4.80;;;;;;;-141.97;nan;47480.63;5030506;28;20194;-88
2023/10/30 08:57:33;;;;;;;11.43;5.37;;;;;;;-141.97;nan;47547.91;5016469;28;20237;-88
2023/10/30 08:59:58;;;;;;;11.17;5.80;;;;;;;-141.97;nan;47461.41;5051170;28;20225;-88
2023/10/30 09:02:24;;;;;;;8.40;5.30;;;;;;;-141.97;nan;47532.53;5032623;28;20204;-88
2023/10/30 09:04:49;;;;;;;12.80;9.60;;;;;;;-141.97;nan;47563.28;5050893;28;20656;-87
2023/10/30 09:07:16;;;;;;;12.97;7.33;;;;;;;-141.97;nan;47419.13;5031255;28;20419;-86
2023/10/30 09:09:41;;;;;;;15.27;10.07;;;;;;;-141.97;nan;47617.09;5050635;28;20388;-86
2023/10/30 09:12:07;;;;;;;13.13;7.40;;;;;;;-141.97;nan;47492.16;5032914;28;20261;-87
2023/10/30 09:14:33;;;;;;;24.60;13.90;;;;;;;-141.97;nan;47519.06;5050895;28;20185;-88
2023/10/30 09:16:58;;;;;;;18.80;10.80;;;;;;;-141.97;nan;47655.53;5028540;28;20225;-87
2023/10/30 09:19:23;;;;;;;10.50;6.13;;;;;;;-141.97;nan;47659.38;5029216;28;20248;-87
2023/10/30 09:21:49;;;;;;;9.40;4.77;;;;;;;-141.97;nan;47434.50;5029368;28;20208;-87
2023/10/30 09:24:14;;;;;;;14.83;7.00;;;;;;;-141.97;nan;47376.84;5030417;28;20220;-87
2023/10/30 09:26:40;;;;;;;11.87;6.60;;;;;;;-141.97;nan;47561.38;5028935;28;20240;-86
2023/10/30 09:29:05;;;;;;;12.00;6.20;;;;;;;-141.97;nan;47419.13;5030378;28;20177;-87
2023/10/30 09:31:32;;;;;;;9.97;6.03;;;;;;;-141.97;nan;47684.38;5029216;28;20177;-87
2023/10/30 09:34:01;;;;;;;14.87;7.63;;;;;;;-141.97;nan;47444.13;5030444;28;20199;-87
2023/10/30 09:36:29;;;;;;;16.60;8.40;;;;;;;-141.97;nan;47557.53;5028571;28;20181;-87
2023/10/30 09:38:55;;;;;;;15.30;8.57;;;;;;;-141.97;nan;47667.06;5029019;28;20549;-88
2023/10/30 09:41:20;;;;;;;15.53;8.33;;;;;;;-141.97;nan;47299.97;5028852;28;20193;-89
2023/10/30 09:43:49;;;;;;;24.67;13.00;;;;;;;-141.97;nan;47622.88;5029434;28;20274;-89
2023/10/30 09:46:16;;;;;;;36.63;20.57;;;;;;;-141.97;nan;47426.81;5030702;28;20586;-90
2023/10/30 09:48:45;;;;;;;16.30;8.53;;;;;;;-141.97;nan;47499.84;5036491;28;20273;-88
2023/10/30 09:51:23;;;;;;;15.43;7.40;;;;;;;-141.97;nan;47348.03;5064183;28;20169;-89
2023/10/30 09:53:50;;;;;;;14.32;8.60;;;;;;;-141.97;nan;47461.41;5075405;28;20208;-88
2023/10/30 09:56:16;;;;;;;16.75;8.00;;;;;;;-141.97;nan;47526.75;5063330;28;20230;-87
2023/10/30 09:58:41;;;;;;;16.30;8.55;;;;;;;-141.97;nan;47492.16;5052584;28;20207;-88
2023/10/30 10:01:07;;;;;;;17.33;8.95;;;;;;;-141.97;nan;47388.38;5053332;28;20166;-86
2023/10/30 10:03:32;;;;;;;17.45;8.85;;;;;;;-141.97;nan;47361.47;5008398;28;20790;-86
2023/10/30 10:05:59;;;;;;;6.35;4.50;;;;;;;-141.97;nan;47501.78;4993200;28;20292;-86
2023/10/30 10:08:26;;;;;;;13.13;5.10;;;;;;;-141.97;nan;47570.97;4987894;28;20196;-87
2023/10/30 10:10:59;;;;;;;13.00;4.70;;;;;;;-141.97;nan;47492.16;4988732;28;20554;-87
2023/10/30 10:13:29;;;;;;;9.48;4.90;;;;;;;-141.97;nan;47480.63;4972193;28;20601;-87
2023/10/30 10:15:55;;;;;;;8.27;4.90;;;;;;;-141.97;nan;47369.16;4990201;28;20228;-87
2023/10/30 10:18:33;;;;;;;8.50;4.85;;;;;;;-141.97;nan;47484.47;4995242;28;20193;-87
2023/10/30 10:21:04;;;;;;;8.50;4.40;;;;;;;-141.97;nan;47599.81;5011413;28;20209;-86
2023/10/30 10:23:32;;;;;;;11.07;4.63;;;;;;;-141.97;nan;47501.78;5011118;28;20249;-85
2023/10/30 10:25:59;;;;;;;10.07;6.13;;;;;;;-141.97;nan;47380.69;4994771;28;20259;-83
2023/10/30 10:28:31;;;;;;;20.98;8.63;;;;;;;-141.97;nan;47355.72;5011278;28;20199;-84
2023/10/30 10:30:57;;;;;;;17.00;7.43;;;;;;;-141.97;nan;47524.84;4995748;28;20265;-84
2023/10/30 10:33:24;;;;;;;15.07;8.57;;;;;;;-141.97;nan;47540.22;4995563;28;20196;-83
2023/10/30 10:36:04;;;;;;;15.43;7.78;;;;;;;-141.97;nan;47480.63;5031249;28;20209;-84
2023/10/30 10:38:33;;;;;;;11.93;5.78;;;;;;;-141.97;nan;47499.84;5031017;28;20193;-84
2023/10/30 10:40:59;;;;;;;8.20;5.30;;;;;;;-141.97;nan;47474.88;5033142;28;20178;-84
2023/10/30 10:43:27;;;;;;;11.65;5.40;;;;;;;-141.97;nan;47430.66;5031102;28;21163;-84
2023/10/30 10:45:54;;;;;;;9.98;4.93;;;;;;;-141.97;nan;47471.03;5031870;28;20186;-85
2023/10/30 10:48:22;;;;;;;12.43;5.60;;;;;;;-141.97;nan;47474.88;5031707;28;20218;-85
2023/10/30 10:50:48;;;;;;;9.90;5.35;;;;;;;-141.97;nan;47496.00;5040561;28;20164;-85
2023/10/30 10:53:16;;;;;;;12.75;5.20;;;;;;;-141.97;nan;47542.16;5053673;28;20583;-85
2023/10/30 10:55:49;;;;;;;13.48;5.32;;;;;;;-141.97;nan;47657.47;5053225;28;20290;-85
2023/10/30 10:58:32;;;;;;;9.30;5.20;;;;;;;-141.97;nan;47367.25;5026379;28;20228;-85
2023/10/30 11:01:01;;;;;;;11.35;5.20;;;;;;;-141.97;nan;47382.63;5033879;28;20170;-86
2023/10/30 11:03:27;;;;;;;10.32;5.10;;;;;;;-141.97;nan;47419.13;5034041;28;20219;-85
2023/10/30 11:05:53;;;;;;;13.88;5.10;;;;;;;-141.97;nan;47417.22;5033383;28;20235;-86
2023/10/30 11:08:30;;;;;;;9.20;5.47;;;;;;;-141.97;nan;47457.56;5032489;28;20550;-86
2023/10/30 11:10:56;;;;;;;9.35;5.53;;;;;;;-141.97;nan;47469.09;5031939;28;20176;-87
2023/10/30 11:13:38;;;;;;;9.93;5.53;;;;;;;-141.97;nan;47376.84;5033563;28;20581;-87
2023/10/30 11:16:33;;;;;;;9.63;5.50;;;;;;;-141.97;nan;47528.69;5037645;28;20250;-87
2023/10/30 11:18:59;;;;;;;9.10;5.90;;;;;;;-141.97;nan;47521.00;5053308;28;20706;-87
2023/10/30 11:21:28;;;;;;;10.85;6.40;;;;;;;-141.97;nan;47474.88;5034848;28;20177;-86
2023/10/30 11:23:58;;;;;;;14.18;6.65;;;;;;;-141.97;nan;47371.09;5052821;28;20586;-87